CheckWX is a tool to help pilots better visualize weather data.  It is not intended as a substitute for an official pre-flight weather briefing.

12:49:55 UTC

CYWE METAR
Wekweeti
Wekweeti, Northwest Territories, Canada
Current

50 mins ago

CYWE 181200Z AUTO 12003KT 050V130 9SM CLR M31/M35 A3009 RMK ICG SLP252
Observed
Feb-18 @ 12:00 UTC
Wind
  • 120° at 3 KTS
Visibility
9 SM
Flight Rules
VFR
Cloud Levels
  • Clear skies
Temperature
-31°C / -24°F
Dewpoint
-35°C / -31°F
Humidity
68%
Altimeter
30.09" Hg
Pressure
1025.2 hPa
Previous

2 hours ago

CYWE 181100Z AUTO VRB02KT 9SM CLR M31/M34 A3012 RMK ICG SLP262
Observed
Feb-18 @ 11:00 UTC
Wind
  • Variable at 2 KTS
Visibility
9 SM
Flight Rules
VFR
Cloud Levels
  • Clear skies
Temperature
-31°C / -24°F
Dewpoint
-34°C / -29°F
Humidity
75%
Altimeter
30.12" Hg
Pressure
1026.2 hPa
Previous

3 hours ago

CYWE 181000Z AUTO 19005KT 9SM CLR M31/M34 A3015 RMK ICG PRESFR SLP272
Observed
Feb-18 @ 10:00 UTC
Wind
  • 190° at 5 KTS
Visibility
9 SM
Flight Rules
VFR
Cloud Levels
  • Clear skies
Temperature
-31°C / -24°F
Dewpoint
-34°C / -29°F
Humidity
75%
Altimeter
30.15" Hg
Pressure
1027.2 hPa